ADDS TAF Board (Experimental) INFO Settings
IDs: Format: Expanded Condensed

KLAX - Los Angeles Intl, CA, US

Issued at 1725 UTC 01 Jul 2016
Updated at 2036 UTC 01 Jul 2016
Time1953Z 01/21Z 01/22Z 01/23Z 02/00Z 02/01Z 02/02Z 02/03Z 02/04Z 02/05Z 02/06Z 02/07Z 02/08Z 02/09Z
Type OBS PRVL PRVL PRVL PRVL PRVL PRVL PRVL PRVL PRVL PRVL PRVL PRVL PRVL
VIS 9 >6 >6 >6 >6 >6 >6 >6 >6 >6 >6 >6 >6 >6
CIG -- -- -- -- -- -- -- 15 15 15 15 15 15 15
Cover SCT FEW FEW FEW FEW FEW FEW BKN BKN BKN BKN BKN BKN OVC
FltCat VFR VFR VFR VFR VFR VFR VFR MVFR MVFR MVFR MVFR MVFR MVFR MVFR
WX -- -- -- -- -- -- -- -- -- -- -- -- -- --
WDir 240 260 260 260 260 260 260 270 270 270 270 270 270 VRB
WSpd 12 15 15 15 15 15 15 7 7 7 7 7 7 3
WGst -- -- -- -- -- -- -- -- -- -- -- -- -- --
R06/24
XWnd -5 -1 -1 -1 -1 -1 -1 1 1 1 1 1 1 VRB
HWnd -11 -15 -15 -15 -15 -15 -15 -7 -7 -7 -7 -7 -7 VRB
R07/25
XWnd -5 -1 -1 -1 -1 -1 -1 1 1 1 1 1 1 VRB
HWnd -11 -15 -15 -15 -15 -15 -15 -7 -7 -7 -7 -7 -7 VRB

Raw TAF
KLAX 011725Z 0118/0224 24007KT P6SM SCT018 BKN023
  FM011900 24008KT P6SM SCT020
  FM012100 26015KT P6SM FEW018
  FM020300 27007KT P6SM BKN015
  FM020900 VRB03KT P6SM OVC015
  FM021700 VRB03KT P6SM BKN020
  FM022000 25012KT P6SM SCT020


Raw METAR
KLAX 011953Z 24012KT 9SM FEW025 SCT090 24/16 A2993 RMK AO2 SLP135 T02390161
KLAX 011853Z 25011KT 9SM SCT025 SCT090 23/17 A2994 RMK AO2 SLP135 T02280167
KLAX 011753Z 23009KT 8SM SCT026 23/17 A2993 RMK AO2 SLP133 T02330167 10233 20200 53006
KLAX 011748Z 23009KT 8SM SCT026 23/17 A2993 RMK AO2

METAR Board
Radar Display
Forecast Discussion

TAF Board Legend

Potential Impact
Threat None Slight Moderate High
Visibility (sm) ≥5.1 5.1>X≥3 3>X≥1 <1
Ceiling (100 ft) ≥30.1 30.1>X≥10 10>X≥5 <5
Wind Speed (kt) <10 10≤X<20 20≤X<30 ≥30
Wind Gust (kt) <15 15≤X<25 25≤X<35 ≥35
Weather No Wx Reported VCTS,-TS,-FZRA,SN TS,FZRA +TS,+FZRA,+SN